Etusivu
METAR-TAF:

METAR-TAF

Lentoasemat :

Campo, Kalifornia, Yhdysvallat

Leveyspiiri: 32-37-34N, Pituuspiiri: 116-28-06W, korkeus merenpinnasta: 807 m

Tämänhetkinen sää

Tämä raportti tehtiin 20 minuuttia sitten, kello 03.52 UTC
Tuuli 5 kn koillisesta
Lämpötila 9°C
Kosteus 57%
Ilmanpaine 1020 hPa

METAR: KCZZ 250352Z AUTO 05005KT 09/01 A3013 RMK AO1 SLP193 T00890006

Aika: 20:12 (04:12 UTC)


TAF: puuttuu

Säähavainnot ja -ennusteet yli 4000 lentoasemalta (METAR- ja TAF-raportit).

Käytössä olevat sääasemat on merkitty karttaan keltaisilla ja punaisilla pisteillä.

Aseta hiiri pisteen päälle nähdäksesi sääaseman nimen.

Klikkaa sitten nähdäksesi säähavainnot ja -ennusteet.

Kartan vaihtaminen: klikkaa mustalla rastilla varustettuja vihreitä pisteitä, niin voit zoomata sisään; viivalla varustettua vihreää pistettä, niin voit zoomata ulos tai vihreitä nuolia, niin pääset viereisille kartoille.


METAR-TAF: